createdAt,value
2018-07-22T00:01:49.660Z,15.63
2018-07-22T00:04:18.885Z,18.00
2018-07-22T00:06:48.093Z,14.83
2018-07-22T00:09:17.216Z,15.97
2018-07-22T00:11:46.418Z,15.90
2018-07-22T00:14:15.584Z,18.23
2018-07-22T00:16:44.812Z,17.63
2018-07-22T00:19:13.974Z,17.53
2018-07-22T00:21:43.244Z,18.13
2018-07-22T00:24:12.721Z,17.93
2018-07-22T00:26:41.905Z,16.20
2018-07-22T00:29:11.093Z,21.97
2018-07-22T00:31:40.290Z,19.27
2018-07-22T00:34:09.458Z,18.87
2018-07-22T00:36:38.731Z,23.00
2018-07-22T00:39:10.064Z,19.73
2018-07-22T00:41:39.312Z,18.23
2018-07-22T00:44:08.463Z,20.90
2018-07-22T00:46:37.712Z,21.63
2018-07-22T00:49:06.949Z,23.23
2018-07-22T00:51:36.125Z,23.07
2018-07-22T00:54:05.561Z,25.00
2018-07-22T00:56:35.009Z,23.47
2018-07-22T00:59:04.223Z,22.40
2018-07-22T01:01:33.464Z,23.57
2018-07-22T01:04:02.605Z,23.20
2018-07-22T01:06:31.872Z,23.67
2018-07-22T01:09:01.020Z,23.93
2018-07-22T01:11:30.366Z,20.53
2018-07-22T01:13:59.521Z,20.37
2018-07-22T01:16:28.775Z,19.00
2018-07-22T01:18:58.008Z,25.03
2018-07-22T01:21:27.456Z,21.67
2018-07-22T01:23:56.585Z,22.47
2018-07-22T01:26:25.776Z,25.00
2018-07-22T01:28:55.004Z,22.77
2018-07-22T01:31:24.248Z,25.13
2018-07-22T01:33:54.324Z,22.93
2018-07-22T01:36:23.452Z,25.53
2018-07-22T01:38:52.840Z,20.73
2018-07-22T01:41:22.079Z,20.10
2018-07-22T01:43:51.238Z,23.00
2018-07-22T01:46:20.377Z,27.97
2018-07-22T01:48:49.644Z,22.87
2018-07-22T01:51:18.932Z,22.83
2018-07-22T01:53:48.089Z,23.13
2018-07-22T01:56:17.245Z,22.20
2018-07-22T01:58:46.666Z,24.77
2018-07-22T02:01:15.807Z,24.10
2018-07-22T02:03:44.972Z,21.83
2018-07-22T02:06:14.102Z,27.07
2018-07-22T02:08:43.254Z,20.90
2018-07-22T02:11:12.400Z,21.17
2018-07-22T02:13:42.537Z,22.30
2018-07-22T02:16:11.655Z,23.87
2018-07-22T02:18:40.860Z,22.10
2018-07-22T02:21:09.992Z,23.70
2018-07-22T02:23:39.180Z,23.97
2018-07-22T02:26:08.370Z,28.13
2018-07-22T02:28:37.550Z,25.90
2018-07-22T02:31:06.981Z,20.90
2018-07-22T02:33:37.242Z,24.30
2018-07-22T02:36:06.845Z,22.03
2018-07-22T02:38:36.160Z,25.10
2018-07-22T02:41:05.371Z,22.73
2018-07-22T02:43:34.527Z,23.97
2018-07-22T02:46:03.696Z,24.53
2018-07-22T02:48:32.957Z,25.80
2018-07-22T02:51:02.206Z,25.10
2018-07-22T02:53:31.337Z,22.37
2018-07-22T02:56:00.638Z,20.90
2018-07-22T02:58:29.835Z,24.50
2018-07-22T03:00:58.981Z,23.33
2018-07-22T03:03:28.176Z,24.10
2018-07-22T03:05:57.446Z,20.23
2018-07-22T03:08:26.718Z,23.50
2018-07-22T03:10:55.902Z,24.20
2018-07-22T03:13:25.109Z,25.77
2018-07-22T03:15:54.249Z,24.53
2018-07-22T03:18:23.577Z,23.67
2018-07-22T03:20:52.773Z,23.53
2018-07-22T03:23:21.976Z,23.17
2018-07-22T03:25:51.170Z,27.63
2018-07-22T03:28:20.426Z,27.70
2018-07-22T03:30:49.565Z,26.17
2018-07-22T03:33:18.796Z,25.57
2018-07-22T03:35:47.954Z,22.37
2018-07-22T03:38:17.085Z,22.67
2018-07-22T03:40:46.277Z,21.77
2018-07-22T03:43:15.447Z,26.07
2018-07-22T03:45:50.226Z,25.20
2018-07-22T03:48:19.361Z,25.17
2018-07-22T03:50:48.626Z,27.53
2018-07-22T03:53:17.813Z,25.17
2018-07-22T03:55:47.028Z,26.20
2018-07-22T03:58:16.149Z,27.37
2018-07-22T04:00:45.316Z,27.27
2018-07-22T04:03:14.652Z,33.87
2018-07-22T04:05:44.118Z,42.53
2018-07-22T04:08:13.253Z,51.87
2018-07-22T04:10:42.429Z,42.47
2018-07-22T04:13:11.698Z,104.03
2018-07-22T04:15:40.861Z,49.30
2018-07-22T04:18:10.072Z,26.67
2018-07-22T04:20:39.212Z,29.07
2018-07-22T04:23:08.520Z,22.73
2018-07-22T04:25:37.656Z,22.83
2018-07-22T04:28:06.813Z,20.67
2018-07-22T04:30:35.953Z,20.67
2018-07-22T04:33:05.188Z,20.00
2018-07-22T04:35:34.412Z,25.80
2018-07-22T04:38:03.665Z,26.40
2018-07-22T04:40:32.798Z,55.27
2018-07-22T04:43:02.016Z,71.50
2018-07-22T04:45:31.217Z,63.40
2018-07-22T04:48:00.454Z,39.93
2018-07-22T04:50:29.600Z,37.20
2018-07-22T04:52:58.750Z,43.83
2018-07-22T04:55:27.940Z,37.93
2018-07-22T04:57:57.143Z,34.93
2018-07-22T05:00:26.320Z,44.03
2018-07-22T05:02:55.450Z,34.13
2018-07-22T05:05:24.721Z,37.37
2018-07-22T05:07:53.861Z,32.67
2018-07-22T05:10:23.120Z,33.33
2018-07-22T05:12:52.246Z,30.27
2018-07-22T05:15:21.419Z,30.03
2018-07-22T05:17:50.577Z,35.97
2018-07-22T05:20:19.776Z,51.23
2018-07-22T05:22:48.919Z,38.20
2018-07-22T05:25:18.089Z,44.87
2018-07-22T05:27:47.256Z,44.60
2018-07-22T05:30:16.501Z,44.67
2018-07-22T05:32:45.682Z,49.80
2018-07-22T05:35:14.885Z,65.27
2018-07-22T05:37:44.174Z,47.97
2018-07-22T05:40:13.390Z,52.83
2018-07-22T05:42:42.513Z,54.70
2018-07-22T05:45:11.809Z,31.00
2018-07-22T05:47:41.153Z,29.43
2018-07-22T05:50:10.385Z,26.50
2018-07-22T05:52:39.638Z,24.43
2018-07-22T05:55:08.884Z,25.90
2018-07-22T05:57:38.029Z,26.40
2018-07-22T06:00:08.017Z,24.90
2018-07-22T06:02:37.409Z,27.43
2018-07-22T06:05:06.882Z,29.57
2018-07-22T06:07:36.093Z,25.47
2018-07-22T06:10:06.181Z,24.30
2018-07-22T06:12:35.356Z,27.43
2018-07-22T06:15:05.213Z,24.17
2018-07-22T06:17:34.369Z,23.67
2018-07-22T06:20:03.601Z,24.77
2018-07-22T06:22:32.802Z,21.60
2018-07-22T06:25:02.126Z,22.40
2018-07-22T06:27:31.448Z,21.73
2018-07-22T06:30:00.589Z,20.23
2018-07-22T06:32:29.780Z,19.47
2018-07-22T06:34:59.090Z,20.43
2018-07-22T06:37:28.302Z,18.37
2018-07-22T06:39:57.425Z,18.90
2018-07-22T06:42:26.598Z,19.00
2018-07-22T06:44:56.016Z,19.47
2018-07-22T06:47:25.205Z,19.43
2018-07-22T06:49:54.383Z,17.67
2018-07-22T06:52:23.692Z,17.53
2018-07-22T06:54:53.002Z,16.97
2018-07-22T06:57:22.331Z,17.40
2018-07-22T06:59:51.820Z,16.50
2018-07-22T07:02:21.389Z,18.77
2018-07-22T07:04:50.558Z,15.43
2018-07-22T07:07:19.710Z,16.47
2018-07-22T07:09:48.984Z,18.50
2018-07-22T07:12:18.152Z,19.00
2018-07-22T07:14:47.436Z,18.43
2018-07-22T07:17:16.573Z,14.37
2018-07-22T07:19:45.884Z,16.07
2018-07-22T07:22:15.094Z,15.63
2018-07-22T07:24:44.377Z,16.90
2018-07-22T07:27:13.529Z,14.10
2018-07-22T07:29:42.773Z,15.50
2018-07-22T07:32:12.132Z,13.07
2018-07-22T07:34:41.376Z,14.37
2018-07-22T07:37:10.638Z,14.90
2018-07-22T07:39:39.865Z,14.83
2018-07-22T07:42:10.329Z,16.20
2018-07-22T07:44:39.842Z,14.43
2018-07-22T07:47:09.058Z,15.47
2018-07-22T07:49:38.418Z,15.53
2018-07-22T07:52:07.653Z,15.07
2018-07-22T07:54:37.805Z,13.73
2018-07-22T07:57:06.953Z,16.53
2018-07-22T07:59:36.180Z,15.60
2018-07-22T08:02:05.329Z,15.57
2018-07-22T08:04:34.535Z,15.47
2018-07-22T08:07:03.758Z,15.47
2018-07-22T08:09:33.027Z,15.03
2018-07-22T08:12:02.154Z,15.57
2018-07-22T08:14:31.659Z,16.37
2018-07-22T08:17:01.314Z,17.10
2018-07-22T08:19:30.577Z,17.50
2018-07-22T08:22:00.288Z,17.23
2018-07-22T08:24:29.473Z,17.53
2018-07-22T08:26:58.686Z,18.57
2018-07-22T08:29:30.931Z,18.00
2018-07-22T08:32:00.756Z,19.10
2018-07-22T08:34:30.265Z,18.73
2018-07-22T08:36:59.889Z,20.67
2018-07-22T08:39:30.181Z,21.17
2018-07-22T08:41:59.925Z,20.70
2018-07-22T08:44:29.110Z,20.67
2018-07-22T08:46:58.358Z,21.70
2018-07-22T08:49:27.657Z,20.10
2018-07-22T08:51:56.996Z,23.10
2018-07-22T08:54:26.236Z,19.10
2018-07-22T08:56:55.542Z,21.00
2018-07-22T08:59:24.749Z,20.10
2018-07-22T09:01:54.029Z,16.83
2018-07-22T09:04:23.153Z,19.27
2018-07-22T09:06:52.850Z,17.80
2018-07-22T09:09:22.132Z,19.77
2018-07-22T09:11:51.369Z,18.70
2018-07-22T09:14:20.536Z,18.77
2018-07-22T09:16:49.705Z,15.97
2018-07-22T09:19:18.934Z,15.37
2018-07-22T09:21:48.256Z,17.10
2018-07-22T09:24:18.629Z,16.37
2018-07-22T09:26:47.751Z,17.20
2018-07-22T09:29:17.948Z,14.73
2018-07-22T09:31:47.212Z,15.83
2018-07-22T09:34:16.449Z,15.47
2018-07-22T09:36:45.774Z,16.13
2018-07-22T09:39:15.161Z,15.57
2018-07-22T09:41:44.495Z,16.03
2018-07-22T09:44:14.078Z,15.73
2018-07-22T09:46:43.488Z,16.80
2018-07-22T09:49:12.892Z,15.53
2018-07-22T09:51:42.228Z,15.43
2018-07-22T09:54:11.555Z,13.83
2018-07-22T09:56:41.107Z,14.60
2018-07-22T09:59:10.506Z,14.13
2018-07-22T10:01:39.851Z,14.50
2018-07-22T10:04:09.406Z,13.73
2018-07-22T10:06:38.889Z,13.63
2018-07-22T10:09:10.062Z,11.70
2018-07-22T10:11:39.711Z,12.03
2018-07-22T10:14:10.981Z,12.50
2018-07-22T10:16:40.273Z,13.60
2018-07-22T10:19:09.743Z,12.93
2018-07-22T10:21:39.358Z,12.30
2018-07-22T10:24:08.667Z,13.63
2018-07-22T10:26:38.105Z,13.77
2018-07-22T10:29:08.250Z,12.17
2018-07-22T10:31:37.673Z,13.00
2018-07-22T10:34:07.054Z,13.90
2018-07-22T10:36:36.640Z,14.47
2018-07-22T10:39:08.696Z,13.23
2018-07-22T10:41:38.063Z,12.20
2018-07-22T10:44:07.337Z,11.67
2018-07-22T10:46:37.121Z,13.87
2018-07-22T10:49:06.667Z,13.70
2018-07-22T10:51:37.095Z,12.40
2018-07-22T10:54:09.530Z,12.90
2018-07-22T10:56:40.005Z,12.33
2018-07-22T10:59:09.504Z,13.90
2018-07-22T11:01:40.012Z,13.85
2018-07-22T11:04:09.266Z,12.88
2018-07-22T11:06:38.584Z,12.33
2018-07-22T11:09:09.081Z,13.20
2018-07-22T11:11:38.806Z,12.70
2018-07-22T11:14:08.366Z,11.50
2018-07-22T11:16:40.570Z,11.70
2018-07-22T11:19:10.709Z,13.05
2018-07-22T11:21:40.217Z,12.13
2018-07-22T11:24:09.495Z,12.43
2018-07-22T11:26:38.769Z,11.97
2018-07-22T11:29:08.122Z,12.05
2018-07-22T11:31:37.358Z,11.43
2018-07-22T11:34:06.796Z,10.50
2018-07-22T11:36:35.953Z,10.85
2018-07-22T11:39:07.909Z,11.25
2018-07-22T11:41:37.897Z,11.28
2018-07-22T11:44:07.792Z,10.88
2018-07-22T11:46:38.094Z,8.40
2018-07-22T11:49:07.609Z,10.00
2018-07-22T11:51:37.713Z,9.33
2018-07-22T11:54:07.224Z,9.35
2018-07-22T11:56:36.388Z,8.78
2018-07-22T11:59:06.783Z,9.35
2018-07-22T12:01:36.029Z,9.05
2018-07-22T12:04:05.312Z,9.80
2018-07-22T12:06:34.780Z,9.38
2018-07-22T12:09:05.177Z,8.85
2018-07-22T12:11:34.342Z,8.55
2018-07-22T12:14:03.618Z,8.73
2018-07-22T12:16:33.090Z,8.33
2018-07-22T12:19:02.510Z,8.65
2018-07-22T12:21:31.859Z,10.03
2018-07-22T12:24:01.105Z,8.90
2018-07-22T12:26:30.261Z,9.50
2018-07-22T12:28:59.496Z,9.38
2018-07-22T12:31:28.726Z,9.60
2018-07-22T12:33:58.210Z,10.50
2018-07-22T12:36:27.502Z,10.23
2018-07-22T12:38:56.880Z,9.75
2018-07-22T12:41:26.213Z,10.20
2018-07-22T12:43:56.262Z,9.85
2018-07-22T12:46:25.559Z,10.53
2018-07-22T12:48:54.785Z,11.03
2018-07-22T12:51:24.230Z,11.10
2018-07-22T12:53:53.681Z,9.88
2018-07-22T12:56:23.433Z,9.90
2018-07-22T12:58:52.917Z,10.48
2018-07-22T13:01:22.276Z,9.60
2018-07-22T13:03:51.631Z,9.80
2018-07-22T13:06:20.889Z,9.70
2018-07-22T13:08:50.120Z,9.48
2018-07-22T13:11:19.408Z,9.48
2018-07-22T13:13:48.513Z,10.05
2018-07-22T13:16:18.070Z,8.83
2018-07-22T13:18:47.231Z,9.53
2018-07-22T13:21:17.263Z,10.05
2018-07-22T13:23:46.846Z,8.65
2018-07-22T13:26:16.158Z,9.10
2018-07-22T13:28:45.423Z,10.15
2018-07-22T13:31:14.624Z,11.40
2018-07-22T13:33:43.750Z,10.10
2018-07-22T13:36:13.025Z,10.05
2018-07-22T13:38:42.220Z,8.68
2018-07-22T13:41:11.418Z,10.08
2018-07-22T13:43:40.708Z,10.20
2018-07-22T13:46:10.032Z,9.70
2018-07-22T13:48:39.260Z,9.68
2018-07-22T13:51:08.549Z,9.60
2018-07-22T13:53:37.714Z,8.73
2018-07-22T13:56:06.946Z,9.58
2018-07-22T13:58:36.172Z,9.03
2018-07-22T14:01:05.497Z,8.13
2018-07-22T14:03:34.706Z,8.20
2018-07-22T14:06:04.034Z,8.73
2018-07-22T14:08:33.261Z,8.70
2018-07-22T14:11:02.503Z,9.43
2018-07-22T14:13:31.725Z,9.60
2018-07-22T14:16:01.003Z,9.03
2018-07-22T14:18:30.170Z,9.70
2018-07-22T14:21:00.458Z,9.68
2018-07-22T14:23:29.737Z,9.18
2018-07-22T14:25:58.982Z,10.38
2018-07-22T14:28:28.219Z,9.95
2018-07-22T14:30:57.417Z,9.28
2018-07-22T14:33:26.732Z,9.18
2018-07-22T14:35:56.573Z,8.78
2018-07-22T14:38:27.565Z,8.08
2018-07-22T14:40:57.429Z,6.97
2018-07-22T14:43:26.910Z,7.75
2018-07-22T14:45:56.078Z,6.90
2018-07-22T14:48:26.316Z,8.90
2018-07-22T14:50:55.670Z,6.58
2018-07-22T14:53:24.844Z,6.62
2018-07-22T14:55:54.225Z,7.00
2018-07-22T14:58:23.462Z,6.30
2018-07-22T15:00:52.764Z,6.72
2018-07-22T15:03:21.956Z,6.42
2018-07-22T15:05:51.193Z,6.53
2018-07-22T15:08:20.509Z,6.60
2018-07-22T15:10:49.815Z,6.28
2018-07-22T15:13:18.948Z,6.40
2018-07-22T15:15:48.135Z,6.40
2018-07-22T15:18:17.501Z,6.87
2018-07-22T15:20:46.745Z,6.58
2018-07-22T15:23:16.001Z,6.25
2018-07-22T15:25:45.300Z,6.62
2018-07-22T15:28:15.151Z,6.08
2018-07-22T15:30:44.851Z,6.55
2018-07-22T15:33:14.055Z,6.62
2018-07-22T15:35:43.401Z,6.20
2018-07-22T15:38:12.816Z,5.83
2018-07-22T15:40:42.068Z,6.58
2018-07-22T15:43:11.361Z,6.30
2018-07-22T15:45:40.702Z,5.92
2018-07-22T15:48:10.034Z,6.08
2018-07-22T15:50:39.280Z,5.97
2018-07-22T15:53:08.596Z,5.62
2018-07-22T15:55:38.036Z,6.20
2018-07-22T15:58:07.205Z,5.85
2018-07-22T16:00:36.560Z,5.90
2018-07-22T16:03:05.883Z,6.00
2018-07-22T16:05:35.164Z,5.80
2018-07-22T16:08:04.513Z,6.33
2018-07-22T16:10:33.820Z,6.10
2018-07-22T16:13:03.201Z,6.92
2018-07-22T16:15:32.484Z,6.10
2018-07-22T16:18:01.821Z,6.28
2018-07-22T16:20:31.056Z,6.15
2018-07-22T16:23:00.611Z,6.12
2018-07-22T16:25:30.053Z,6.15
2018-07-22T16:27:59.364Z,6.08
2018-07-22T16:30:28.706Z,5.67
2018-07-22T16:32:58.032Z,6.37
2018-07-22T16:35:27.529Z,6.20
2018-07-22T16:37:56.927Z,6.25
2018-07-22T16:40:26.436Z,6.05
2018-07-22T16:42:55.642Z,6.62
2018-07-22T16:45:25.005Z,5.90
2018-07-22T16:47:54.252Z,6.65
2018-07-22T16:50:24.444Z,7.35
2018-07-22T16:52:53.653Z,6.45
2018-07-22T16:55:22.910Z,6.30
2018-07-22T16:57:52.225Z,6.70
2018-07-22T17:00:21.653Z,6.15
2018-07-22T17:02:50.906Z,6.45
2018-07-22T17:05:20.156Z,9.28
2018-07-22T17:07:49.761Z,6.42
2018-07-22T17:10:19.172Z,6.22
2018-07-22T17:12:48.689Z,6.40
2018-07-22T17:15:18.385Z,6.58
2018-07-22T17:17:47.678Z,6.35
2018-07-22T17:20:16.856Z,6.12
2018-07-22T17:22:46.108Z,6.25
2018-07-22T17:25:15.319Z,6.47
2018-07-22T17:27:44.652Z,6.33
2018-07-22T17:30:13.914Z,6.65
2018-07-22T17:32:43.239Z,6.28
2018-07-22T17:35:12.576Z,6.58
2018-07-22T17:37:41.980Z,5.92
2018-07-22T17:40:11.177Z,6.05
2018-07-22T17:42:40.507Z,6.20
2018-07-22T17:45:09.754Z,6.22
2018-07-22T17:47:39.081Z,6.25
2018-07-22T17:50:08.456Z,6.30
2018-07-22T17:52:37.751Z,6.45
2018-07-22T17:55:07.194Z,5.95
2018-07-22T17:57:36.552Z,6.58
2018-07-22T18:00:06.070Z,6.30
2018-07-22T18:02:35.335Z,5.90
2018-07-22T18:07:54.634Z,6.40
2018-07-22T18:10:24.002Z,6.37
2018-07-22T18:12:54.339Z,6.85
2018-07-22T18:15:23.508Z,6.33
2018-07-22T18:17:52.857Z,6.22
2018-07-22T18:20:22.048Z,6.33
2018-07-22T18:22:51.382Z,6.92
2018-07-22T18:25:20.695Z,6.20
2018-07-22T18:27:50.065Z,6.03
2018-07-22T18:30:19.312Z,6.28
2018-07-22T18:32:48.668Z,6.05
2018-07-22T18:35:17.841Z,6.67
2018-07-22T18:37:47.412Z,6.47
2018-07-22T18:40:16.733Z,6.47
2018-07-22T18:42:46.000Z,7.20
2018-07-22T18:45:15.364Z,7.62
2018-07-22T18:47:44.770Z,7.25
2018-07-22T18:50:14.065Z,8.08
2018-07-22T18:52:43.476Z,8.05
2018-07-22T18:55:12.669Z,8.68
2018-07-22T18:57:41.912Z,10.40
2018-07-22T19:00:11.180Z,12.45
2018-07-22T19:02:40.424Z,10.58
2018-07-22T19:05:09.734Z,9.50
2018-07-22T19:07:39.018Z,9.35
2018-07-22T19:10:08.702Z,8.40
2018-07-22T19:12:37.893Z,8.30
2018-07-22T19:15:07.161Z,11.73
2018-07-22T19:17:36.482Z,9.90
2018-07-22T19:20:06.120Z,10.32
2018-07-22T19:22:35.372Z,9.08
2018-07-22T19:25:04.702Z,8.40
2018-07-22T19:27:33.892Z,7.83
2018-07-22T19:30:03.229Z,8.65
2018-07-22T19:32:32.568Z,8.38
2018-07-22T19:35:02.044Z,9.40
2018-07-22T19:37:31.338Z,9.75
2018-07-22T19:40:00.698Z,9.20
2018-07-22T19:42:29.884Z,9.48
2018-07-22T19:44:59.125Z,8.95
2018-07-22T19:47:28.525Z,8.55
2018-07-22T19:49:57.808Z,8.53
2018-07-22T19:52:27.152Z,8.78
2018-07-22T19:54:56.468Z,9.10
2018-07-22T19:57:25.762Z,8.90
2018-07-22T19:59:55.090Z,8.93
2018-07-22T20:02:24.341Z,9.10
2018-07-22T20:04:53.689Z,8.75
2018-07-22T20:07:22.870Z,9.15
2018-07-22T20:09:52.169Z,10.75
2018-07-22T20:12:21.399Z,10.30
2018-07-22T20:14:50.666Z,10.18
2018-07-22T20:17:19.800Z,10.58
2018-07-22T20:19:49.056Z,9.77
2018-07-22T20:22:18.356Z,12.17
2018-07-22T20:24:47.600Z,10.20
2018-07-22T20:27:16.825Z,11.08
2018-07-22T20:29:46.063Z,11.10
2018-07-22T20:32:15.333Z,10.28
2018-07-22T20:34:44.823Z,10.73
2018-07-22T20:37:14.868Z,11.23
2018-07-22T20:39:44.361Z,11.65
2018-07-22T20:42:13.554Z,10.73
2018-07-22T20:44:42.878Z,11.25
2018-07-22T20:47:12.183Z,10.43
2018-07-22T20:49:41.365Z,10.60
2018-07-22T20:52:10.737Z,10.43
2018-07-22T20:54:40.037Z,11.20
2018-07-22T20:57:09.583Z,10.88
2018-07-22T20:59:38.986Z,11.10
2018-07-22T21:02:08.444Z,14.65
2018-07-22T21:04:38.115Z,12.40
2018-07-22T21:07:07.385Z,11.78
2018-07-22T21:09:37.016Z,11.47
2018-07-22T21:12:44.818Z,11.08
2018-07-22T21:15:15.033Z,10.32
2018-07-22T21:17:46.107Z,10.73
2018-07-22T21:20:16.263Z,10.27
2018-07-22T21:22:45.774Z,11.57
2018-07-22T21:25:15.662Z,11.22
2018-07-22T21:27:45.504Z,10.95
2018-07-22T21:30:15.286Z,11.47
2018-07-22T21:32:44.792Z,10.93
2018-07-22T21:35:14.151Z,11.40
2018-07-22T21:37:43.740Z,11.60
2018-07-22T21:40:13.260Z,11.73
2018-07-22T21:42:42.568Z,11.75
2018-07-22T21:45:11.866Z,11.78
2018-07-22T21:47:42.224Z,10.90
2018-07-22T21:50:11.590Z,11.70
2018-07-22T21:52:40.895Z,12.20
2018-07-22T21:55:10.405Z,12.17
2018-07-22T21:57:39.698Z,12.17
2018-07-22T22:00:19.814Z,11.15
2018-07-22T22:02:49.254Z,12.93
2018-07-22T22:05:18.573Z,12.80
2018-07-22T22:07:47.997Z,11.77
2018-07-22T22:10:17.328Z,11.88
2018-07-22T22:12:46.676Z,12.10
2018-07-22T22:15:21.233Z,12.40
2018-07-22T22:17:50.540Z,13.50
2018-07-22T22:20:20.980Z,13.20
2018-07-22T22:22:50.501Z,11.70
2018-07-22T22:25:20.006Z,12.27
2018-07-22T22:27:49.401Z,12.27
2018-07-22T22:30:19.215Z,12.80
2018-07-22T22:32:48.932Z,12.63
2018-07-22T22:35:18.204Z,13.10
2018-07-22T22:37:47.727Z,12.93
2018-07-22T22:40:17.244Z,13.30
2018-07-22T22:42:47.460Z,13.83
2018-07-22T22:45:16.870Z,13.33
2018-07-22T22:47:46.137Z,14.23
2018-07-22T22:50:15.529Z,13.77
2018-07-22T22:52:44.798Z,13.90
2018-07-22T22:55:14.088Z,14.03
2018-07-22T22:58:52.376Z,14.27
2018-07-22T23:01:21.761Z,13.47
2018-07-22T23:03:50.989Z,14.53
2018-07-22T23:06:20.154Z,16.07
2018-07-22T23:08:49.492Z,15.40
2018-07-22T23:11:18.631Z,13.80
2018-07-22T23:13:47.951Z,15.30
2018-07-22T23:16:17.262Z,13.60
2018-07-22T23:18:46.645Z,15.57
2018-07-22T23:21:15.805Z,15.07
2018-07-22T23:23:45.046Z,15.27
2018-07-22T23:26:14.216Z,14.73
2018-07-22T23:28:43.377Z,15.97
2018-07-22T23:31:12.518Z,15.17
2018-07-22T23:33:41.737Z,16.03
2018-07-22T23:36:11.136Z,16.00
2018-07-22T23:38:40.322Z,15.80
2018-07-22T23:41:09.481Z,16.10
2018-07-22T23:43:38.685Z,17.07
2018-07-22T23:46:07.916Z,16.40
2018-07-22T23:48:37.346Z,16.23
2018-07-22T23:51:06.863Z,18.10
2018-07-22T23:53:36.084Z,16.83
2018-07-22T23:56:05.352Z,16.70
2018-07-22T23:58:34.576Z,16.63
